Time;durP1;ratioP1;P1;durP2;ratioP2;P2;SDS_P1;SDS_P2;PMS_P1;PMS_P2;Temp;Humidity;BMP_temperature;BMP_pressure;BME280_temperature;BME280_humidity;BME280_pressure;Samples;Min_cycle;Max_cycle;Signal;HPM_P1;HPM_P2
2022/01/22 00:01:17;;;;;;;2.00;1.30;;;16.40;72.80;;;;;;5075508;28;20178;-14
2022/01/22 00:03:43;;;;;;;2.60;1.57;;;16.50;72.50;;;;;;5076369;28;20177;-14
2022/01/22 00:06:10;;;;;;;2.30;1.53;;;16.50;72.40;;;;;;5075619;28;20180;-14
2022/01/22 00:08:36;;;;;;;2.33;1.30;;;16.50;72.40;;;;;;5075664;28;20160;-15
2022/01/22 00:11:03;;;;;;;2.07;1.37;;;16.50;72.10;;;;;;5075989;28;20218;-14
2022/01/22 00:16:13;;;;;;;3.03;1.70;;;16.60;71.70;;;;;;5075531;28;20179;-15
2022/01/22 00:18:40;;;;;;;2.30;1.60;;;16.60;71.60;;;;;;5057206;28;20174;-15
2022/01/22 00:21:06;;;;;;;2.10;1.43;;;16.60;71.40;;;;;;5057686;28;20182;-15
2022/01/22 00:23:32;;;;;;;2.00;1.40;;;16.60;71.20;;;;;;5075349;28;20186;-14
2022/01/22 00:25:58;;;;;;;2.50;1.60;;;16.60;70.90;;;;;;5058084;28;20207;-16
2022/01/22 00:28:23;;;;;;;2.77;1.50;;;16.60;70.70;;;;;;5075688;28;20259;-17
2022/01/22 00:30:49;;;;;;;1.63;1.53;;;16.70;70.50;;;;;;5074754;28;20207;-16
2022/01/22 00:33:16;;;;;;;1.50;1.30;;;16.70;70.30;;;;;;5074409;28;20170;-14
2022/01/22 00:35:43;;;;;;;2.37;1.57;;;16.70;70.20;;;;;;5073748;28;20177;-14
2022/01/22 00:38:08;;;;;;;1.53;1.30;;;16.70;70.00;;;;;;5073520;28;20158;-16
2022/01/22 00:40:34;;;;;;;2.13;1.40;;;16.70;69.80;;;;;;5074472;28;20183;-14
2022/01/22 00:43:00;;;;;;;2.37;1.43;;;16.70;69.80;;;;;;5055926;28;20253;-15
2022/01/22 00:45:26;;;;;;;3.07;1.63;;;16.70;69.70;;;;;;5056579;28;20180;-16
2022/01/22 00:47:52;;;;;;;1.60;1.23;;;16.70;69.70;;;;;;5074410;28;20292;-17
2022/01/22 00:50:22;;;;;;;2.57;1.50;;;16.70;69.50;;;;;;5073389;28;20302;-16
2022/01/22 00:52:49;;;;;;;2.97;1.50;;;16.70;69.40;;;;;;5074003;28;20158;-14
2022/01/22 00:55:16;;;;;;;2.30;1.70;;;16.70;69.30;;;;;;5056647;28;20213;-18
2022/01/22 00:57:42;;;;;;;1.80;1.40;;;16.70;69.20;;;;;;5056611;28;20178;-14
2022/01/22 01:00:11;;;;;;;1.77;1.30;;;16.70;69.20;;;;;;5074380;28;20176;-16
2022/01/22 01:02:36;;;;;;;1.97;1.30;;;16.70;69.10;;;;;;5073824;28;20187;-14
2022/01/22 01:05:05;;;;;;;2.50;1.60;;;16.80;69.00;;;;;;5055802;28;20332;-14
2022/01/22 01:07:30;;;;;;;2.43;1.53;;;16.80;69.20;;;;;;5074561;28;20547;-15
2022/01/22 01:09:57;;;;;;;2.67;1.73;;;16.70;68.80;;;;;;5073744;28;20208;-15
2022/01/22 01:12:23;;;;;;;2.20;1.60;;;16.70;68.80;;;;;;5056356;28;20181;-15
2022/01/22 01:15:06;;;;;;;2.40;1.70;;;16.70;68.70;;;;;;5056704;28;20172;-14
2022/01/22 01:34:09;;;;;;;2.23;1.30;;;16.70;68.50;;;;;;5073482;28;20687;-15
2022/01/22 01:36:35;;;;;;;3.40;1.60;;;16.70;68.40;;;;;;5057344;28;20177;-14
2022/01/22 01:39:04;;;;;;;2.03;1.37;;;16.70;68.30;;;;;;5073031;28;20164;-17
2022/01/22 01:41:49;;;;;;;2.27;1.30;;;16.70;68.40;;;;;;5073937;28;20255;-16
2022/01/22 01:44:16;;;;;;;2.33;1.60;;;16.70;68.30;;;;;;5074188;28;20302;-14
2022/01/22 01:46:43;;;;;;;1.23;1.10;;;16.70;68.30;;;;;;5056018;28;20168;-15
2022/01/22 01:49:10;;;;;;;1.90;1.40;;;16.70;68.30;;;;;;5055629;28;20330;-14
2022/01/22 01:51:36;;;;;;;2.43;1.50;;;16.70;68.30;;;;;;5073554;28;20179;-17
2022/01/22 01:59:30;;;;;;;2.20;1.43;;;16.70;68.40;;;;;;5073902;28;20176;-14
2022/01/22 02:01:55;;;;;;;1.50;1.40;;;16.60;68.30;;;;;;5074037;28;20173;-15
2022/01/22 02:04:21;;;;;;;2.23;1.40;;;16.60;68.30;;;;;;5072801;28;20180;-15
2022/01/22 02:06:47;;;;;;;1.53;1.40;;;16.60;68.40;;;;;;5056365;28;20186;-14
2022/01/22 02:09:13;;;;;;;1.70;1.30;;;16.60;68.30;;;;;;5073630;28;20366;-14
2022/01/22 02:11:41;;;;;;;2.10;1.47;;;16.60;68.20;;;;;;5056436;28;20279;-14
2022/01/22 02:25:03;;;;;;;1.73;1.13;;;16.60;68.00;;;;;;5064847;28;20322;-17
2022/01/22 02:27:29;;;;;;;2.40;1.33;;;16.60;67.90;;;;;;5074122;28;20179;-15
2022/01/22 02:29:54;;;;;;;2.77;1.50;;;16.60;67.80;;;;;;5074076;28;20208;-18
2022/01/22 02:35:06;;;;;;;1.80;1.30;;;16.60;67.60;;;;;;5076249;28;20176;-16
2022/01/22 02:37:36;;;;;;;1.30;1.20;;;16.60;67.60;;;;;;5075372;28;20161;-15
2022/01/22 02:40:11;;;;;;;1.97;1.30;;;16.60;67.50;;;;;;5075399;28;20169;-14
2022/01/22 02:42:37;;;;;;;1.40;1.30;;;16.60;67.30;;;;;;5076389;28;20181;-15
2022/01/22 02:45:10;;;;;;;1.63;1.30;;;16.60;67.30;;;;;;5059534;28;20177;-14
2022/01/22 02:47:37;;;;;;;1.40;1.30;;;16.60;67.20;;;;;;5059223;28;20287;-14
2022/01/22 02:50:05;;;;;;;1.60;1.43;;;16.60;67.10;;;;;;5058921;28;20328;-16
2022/01/22 02:52:31;;;;;;;1.50;1.40;;;16.60;67.30;;;;;;5076559;28;20217;-16
2022/01/22 02:54:57;;;;;;;1.50;1.30;;;16.60;67.20;;;;;;5058974;28;20577;-15
2022/01/22 02:57:24;;;;;;;2.03;1.43;;;16.60;67.10;;;;;;5059076;28;20168;-14
2022/01/22 02:59:50;;;;;;;2.43;1.40;;;16.60;67.00;;;;;;5060151;28;20534;-16
2022/01/22 03:02:16;;;;;;;1.67;1.50;;;16.60;66.90;;;;;;5076900;28;20169;-16
2022/01/22 03:04:42;;;;;;;1.67;1.37;;;16.60;66.80;;;;;;5075717;28;20259;-16
2022/01/22 03:07:08;;;;;;;1.40;1.30;;;16.60;66.80;;;;;;5059172;28;20173;-18
2022/01/22 03:09:41;;;;;;;1.53;1.30;;;16.60;66.70;;;;;;5059212;28;20204;-17
2022/01/22 03:22:27;;;;;;;1.37;1.27;;;16.60;66.70;;;;;;5076639;28;20171;-16
2022/01/22 03:27:38;;;;;;;1.83;1.43;;;16.60;66.50;;;;;;5076072;28;20199;-14
2022/01/22 03:30:05;;;;;;;1.77;1.40;;;16.60;66.50;;;;;;5058102;28;20519;-14
2022/01/22 03:32:38;;;;;;;2.43;1.40;;;16.60;66.90;;;;;;5076765;28;20169;-16
2022/01/22 03:37:37;;;;;;;1.87;1.43;;;16.60;66.30;;;;;;5076012;28;20588;-15
2022/01/22 03:40:04;;;;;;;1.80;1.53;;;16.60;66.30;;;;;;5076138;28;20168;-15
2022/01/22 03:42:30;;;;;;;1.50;1.30;;;16.50;66.20;;;;;;5057978;28;20558;-15
2022/01/22 03:44:56;;;;;;;2.00;1.60;;;16.60;66.10;;;;;;5075769;28;20183;-16
2022/01/22 03:47:21;;;;;;;1.33;1.20;;;16.60;66.10;;;;;;5058453;28;20177;-16
2022/01/22 03:49:47;;;;;;;1.60;1.50;;;16.60;66.00;;;;;;5075634;28;20206;-16
2022/01/22 03:52:13;;;;;;;1.47;1.37;;;16.60;66.00;;;;;;5058851;28;20168;-14
2022/01/22 03:54:39;;;;;;;1.20;1.10;;;16.60;66.00;;;;;;5057996;28;20457;-14
2022/01/22 03:57:07;;;;;;;2.43;1.50;;;16.60;66.20;;;;;;5075697;28;20167;-14
2022/01/22 03:59:33;;;;;;;1.53;1.43;;;16.50;66.20;;;;;;5058825;28;20595;-16
2022/01/22 04:07:48;;;;;;;2.23;1.30;;;16.50;66.10;;;;;;5062142;28;20181;-14
2022/01/22 04:10:08;;;;;;;1.80;1.60;;;16.50;66.20;;;;;;5075861;28;20205;-16
2022/01/22 04:12:47;;;;;;;1.63;1.40;;;16.50;66.30;;;;;;5075587;28;20182;-15
2022/01/22 04:15:16;;;;;;;1.83;1.27;;;16.50;66.30;;;;;;5057984;28;20579;-14
2022/01/22 04:26:53;;;;;;;1.73;1.40;;;16.40;66.40;;;;;;5075226;28;20608;-15
2022/01/22 04:28:44;;;;;;;1.60;1.50;;;16.50;66.40;;;;;;5064922;28;20182;-16
2022/01/22 04:31:09;;;;;;;2.77;1.50;;;16.40;66.40;;;;;;5075010;28;20211;-16
2022/01/22 04:33:35;;;;;;;1.50;1.40;;;16.40;66.40;;;;;;5057117;28;20589;-15
2022/01/22 04:36:01;;;;;;;1.90;1.70;;;16.40;66.40;;;;;;5075488;28;20261;-18
2022/01/22 04:38:27;;;;;;;2.07;1.70;;;16.40;66.40;;;;;;5075993;28;20272;-17
2022/01/22 04:40:53;;;;;;;1.90;1.80;;;16.40;66.50;;;;;;5074797;28;20263;-15
2022/01/22 04:43:19;;;;;;;1.60;1.50;;;16.40;66.60;;;;;;5074196;28;20526;-16
2022/01/22 04:46:07;;;;;;;2.00;1.60;;;16.40;66.80;;;;;;5056047;28;20179;-15
2022/01/22 04:56:53;;;;;;;2.00;1.70;;;16.30;67.10;;;;;;5073731;28;20564;-14
2022/01/22 04:59:19;;;;;;;1.93;1.70;;;16.30;67.30;;;;;;5057314;28;20187;-14
2022/01/22 05:01:45;;;;;;;1.77;1.50;;;16.20;67.30;;;;;;5057066;28;20176;-14
2022/01/22 05:04:11;;;;;;;1.73;1.63;;;16.20;67.40;;;;;;5056923;28;20176;-14
2022/01/22 05:06:36;;;;;;;1.43;1.33;;;16.20;67.50;;;;;;5074162;28;20186;-16
2022/01/22 05:09:03;;;;;;;1.93;1.80;;;16.20;67.80;;;;;;5074433;28;20221;-18
2022/01/22 05:11:29;;;;;;;1.70;1.60;;;16.10;67.90;;;;;;5073065;28;20180;-17
2022/01/22 05:13:55;;;;;;;2.23;1.80;;;16.10;68.20;;;;;;5056856;28;20200;-14
2022/01/22 05:16:21;;;;;;;1.83;1.73;;;16.10;68.50;;;;;;5074047;28;20177;-15
2022/01/22 05:19:14;;;;;;;1.87;1.70;;;16.00;68.60;;;;;;5074094;28;20188;-16
2022/01/22 05:21:35;;;;;;;2.07;1.87;;;16.00;68.90;;;;;;5074240;28;20517;-17
2022/01/22 05:24:06;;;;;;;1.93;1.73;;;16.00;69.10;;;;;;5074058;28;20597;-16
2022/01/22 05:39:28;;;;;;;1.47;1.37;;;16.10;69.30;;;;;;5073237;28;20171;-15
2022/01/22 05:41:55;;;;;;;1.20;1.10;;;17.60;60.10;;;;;;5056772;28;20176;-17
2022/01/22 05:44:21;;;;;;;1.40;1.30;;;19.20;55.00;;;;;;5056196;28;20180;-16
2022/01/22 05:46:48;;;;;;;1.50;1.40;;;19.70;52.70;;;;;;5056550;28;20462;-18
2022/01/22 05:49:14;;;;;;;1.40;1.20;;;19.80;52.10;;;;;;5055727;28;20182;-16
2022/01/22 05:51:42;;;;;;;1.53;1.30;;;20.00;51.60;;;;;;5056262;28;20225;-17
2022/01/22 05:59:37;;;;;;;1.50;1.37;;;20.80;50.00;;;;;;5077057;28;20183;-16
2022/01/22 06:02:08;;;;;;;1.60;1.50;;;21.00;49.50;;;;;;5077921;28;20451;-19
2022/01/22 06:04:34;;;;;;;1.40;1.30;;;21.00;49.30;;;;;;5061201;28;20246;-17
2022/01/22 06:07:01;;;;;;;1.50;1.40;;;20.80;49.40;;;;;;5078043;28;20583;-18
2022/01/22 06:09:27;;;;;;;1.60;1.50;;;20.50;49.60;;;;;;5076982;28;20202;-16
2022/01/22 06:14:20;;;;;;;1.50;1.40;;;20.30;50.10;;;;;;5077171;28;20569;-16
2022/01/22 06:16:46;;;;;;;1.50;1.40;;;20.10;50.50;;;;;;5060579;28;20653;-17
2022/01/22 06:19:12;;;;;;;1.97;1.60;;;19.80;50.90;;;;;;5078246;28;20260;-16
2022/01/22 06:21:38;;;;;;;1.40;1.30;;;19.50;51.40;;;;;;5077715;28;20526;-18
2022/01/22 06:24:04;;;;;;;1.50;1.40;;;19.30;52.00;;;;;;5077413;28;20623;-16
2022/01/22 06:26:30;;;;;;;1.53;1.43;;;19.10;52.50;;;;;;5077541;28;20192;-15
2022/01/22 06:28:56;;;;;;;1.37;1.27;;;19.00;52.80;;;;;;5077231;28;20187;-15
2022/01/22 06:31:21;;;;;;;1.50;1.40;;;18.80;53.40;;;;;;5077435;28;20218;-16
2022/01/22 06:33:47;;;;;;;1.63;1.40;;;18.50;54.00;;;;;;5077556;28;20188;-17
2022/01/22 06:36:16;;;;;;;1.57;1.37;;;18.40;54.60;;;;;;5058481;28;20179;-15
2022/01/22 06:38:42;;;;;;;1.60;1.50;;;18.20;55.20;;;;;;5059044;28;20465;-16
2022/01/22 06:43:51;;;;;;;1.47;1.30;;;17.90;56.40;;;;;;5077042;28;20623;-15
2022/01/22 06:46:20;;;;;;;1.40;1.30;;;17.70;57.10;;;;;;5077362;28;20210;-16
2022/01/22 06:48:46;;;;;;;1.57;1.47;;;17.50;57.60;;;;;;5076517;28;20239;-17
2022/01/22 06:51:12;;;;;;;1.40;1.30;;;17.40;58.10;;;;;;5059807;28;20309;-16
2022/01/22 06:53:40;;;;;;;1.43;1.33;;;17.40;58.60;;;;;;5076346;28;20265;-16
2022/01/22 06:56:09;;;;;;;1.57;1.47;;;17.30;59.10;;;;;;5076489;28;20583;-16
2022/01/22 06:58:34;;;;;;;1.43;1.33;;;17.20;59.50;;;;;;5076105;28;20206;-19
2022/01/22 07:01:01;;;;;;;1.60;1.50;;;17.10;59.80;;;;;;5058192;28;20281;-15
2022/01/22 07:03:27;;;;;;;1.50;1.40;;;17.00;60.20;;;;;;5076008;28;20192;-15
2022/01/22 07:05:53;;;;;;;1.50;1.40;;;16.90;60.70;;;;;;5058810;28;20181;-15
2022/01/22 07:08:19;;;;;;;1.40;1.30;;;16.90;61.20;;;;;;5059123;28;20172;-15
2022/01/22 07:10:45;;;;;;;1.60;1.40;;;16.80;61.60;;;;;;5058878;28;20207;-17
2022/01/22 07:13:11;;;;;;;1.50;1.40;;;16.80;62.10;;;;;;5059128;28;20568;-14
2022/01/22 07:15:37;;;;;;;1.60;1.43;;;16.70;62.50;;;;;;5075850;28;20438;-15
2022/01/22 07:18:03;;;;;;;1.60;1.50;;;16.70;62.90;;;;;;5076868;28;20179;-14
2022/01/22 07:20:31;;;;;;;1.67;1.33;;;16.60;63.30;;;;;;5075558;28;20544;-15
2022/01/22 07:23:14;;;;;;;1.40;1.30;;;16.60;63.90;;;;;;5076213;28;20595;-16
2022/01/22 07:25:45;;;;;;;1.50;1.40;;;16.70;63.40;;;;;;5076043;28;20200;-16
2022/01/22 07:28:12;;;;;;;1.50;1.40;;;17.00;61.70;;;;;;5076603;28;20330;-17
2022/01/22 07:30:39;;;;;;;1.40;1.30;;;17.20;60.40;;;;;;5058483;28;20659;-14
2022/01/22 07:33:05;;;;;;;1.63;1.40;;;17.40;59.30;;;;;;5075639;28;20189;-14
2022/01/22 07:35:34;;;;;;;1.70;1.60;;;17.70;58.10;;;;;;5075906;28;20550;-14
2022/01/22 07:38:03;;;;;;;2.57;1.50;;;18.10;56.80;;;;;;5057137;28;20327;-15
2022/01/22 07:40:29;;;;;;;1.30;1.20;;;18.50;55.40;;;;;;5057490;28;20186;-15
2022/01/22 07:42:55;;;;;;;1.73;1.30;;;18.70;54.60;;;;;;5074245;28;20563;-15
2022/01/22 07:45:21;;;;;;;1.50;1.40;;;18.90;54.00;;;;;;5074494;28;20256;-15
2022/01/22 07:47:47;;;;;;;1.40;1.30;;;19.00;53.90;;;;;;5057748;28;20592;-15
2022/01/22 07:50:13;;;;;;;1.40;1.30;;;19.10;53.90;;;;;;5057895;28;20214;-16
2022/01/22 07:52:39;;;;;;;1.37;1.27;;;18.90;53.50;;;;;;5073975;28;20174;-15
2022/01/22 07:55:06;;;;;;;1.37;1.27;;;18.80;53.70;;;;;;5075024;28;20236;-15
2022/01/22 07:57:32;;;;;;;1.43;1.33;;;18.70;54.00;;;;;;5074891;28;20429;-15
2022/01/22 07:59:59;;;;;;;1.73;1.20;;;18.60;54.40;;;;;;5073341;28;20204;-18
2022/01/22 08:02:25;;;;;;;1.43;1.30;;;18.30;55.00;;;;;;5074163;28;20209;-16
2022/01/22 08:04:51;;;;;;;1.40;1.30;;;18.20;55.50;;;;;;5057386;28;20206;-15
2022/01/22 08:07:17;;;;;;;1.40;1.30;;;18.00;56.10;;;;;;5074676;28;20468;-16
2022/01/22 08:09:44;;;;;;;1.40;1.30;;;17.80;56.50;;;;;;5074974;28;20587;-16
2022/01/22 08:12:10;;;;;;;1.40;1.30;;;17.60;57.10;;;;;;5056722;28;20187;-15
2022/01/22 08:14:35;;;;;;;1.50;1.40;;;17.50;57.80;;;;;;5074346;28;20633;-15
2022/01/22 08:17:05;;;;;;;2.10;1.50;;;17.40;58.20;;;;;;5056051;28;20174;-15
2022/01/22 08:19:31;;;;;;;1.33;1.20;;;17.30;58.80;;;;;;5056584;28;20187;-15
2022/01/22 08:21:56;;;;;;;1.40;1.30;;;17.20;59.30;;;;;;5072593;28;20179;-17
2022/01/22 08:24:25;;;;;;;1.67;1.30;;;17.10;59.70;;;;;;5074157;28;20169;-15
2022/01/22 08:27:08;;;;;;;3.00;1.30;;;16.90;60.10;;;;;;5055761;28;20497;-14
2022/01/22 08:29:34;;;;;;;1.50;1.40;;;16.90;60.80;;;;;;5054332;28;20205;-14
2022/01/22 08:37:33;;;;;;;1.30;1.20;;;16.60;62.50;;;;;;5072501;28;20197;-15
2022/01/22 08:40:00;;;;;;;1.70;1.30;;;16.60;63.20;;;;;;5056030;28;20172;-16
2022/01/22 08:42:27;;;;;;;1.67;1.40;;;16.50;63.50;;;;;;5073246;28;20505;-14
2022/01/22 08:44:53;;;;;;;1.43;1.27;;;16.50;63.90;;;;;;5055513;28;20293;-15
2022/01/22 08:47:19;;;;;;;1.47;1.37;;;16.40;64.20;;;;;;5072795;28;20486;-14
2022/01/22 08:49:44;;;;;;;1.40;1.20;;;16.40;64.60;;;;;;5073681;28;20541;-17
2022/01/22 08:52:15;;;;;;;1.80;1.40;;;16.40;64.60;;;;;;5055516;28;20173;-14
2022/01/22 08:54:43;;;;;;;1.53;1.40;;;16.60;63.90;;;;;;5054224;28;20559;-14
2022/01/22 08:57:09;;;;;;;1.40;1.30;;;16.90;62.70;;;;;;5068956;28;20160;-14
2022/01/22 08:59:35;;;;;;;1.30;1.20;;;17.10;60.60;;;;;;5096147;28;20237;-14
2022/01/22 09:02:02;;;;;;;1.47;1.37;;;17.50;59.10;;;;;;5096589;28;20178;-17
2022/01/22 09:04:28;;;;;;;1.40;1.30;;;18.00;57.50;;;;;;5092878;28;20186;-15
2022/01/22 09:06:54;;;;;;;1.50;1.40;;;18.20;56.10;;;;;;5059474;28;20292;-17
2022/01/22 09:09:19;;;;;;;1.20;1.10;;;18.50;55.40;;;;;;5076019;28;20173;-17
2022/01/22 09:11:46;;;;;;;1.37;1.20;;;18.60;55.00;;;;;;5076735;28;20185;-15
2022/01/22 09:14:14;;;;;;;1.60;1.40;;;18.60;54.80;;;;;;5094430;28;20175;-15
2022/01/22 09:16:41;;;;;;;1.40;1.20;;;18.60;54.70;;;;;;5095837;28;20177;-14
2022/01/22 09:19:10;;;;;;;2.40;1.50;;;18.70;54.50;;;;;;5095907;28;20169;-15
2022/01/22 09:21:44;;;;;;;1.20;1.10;;;18.70;54.50;;;;;;5078654;28;20601;-15
2022/01/22 09:24:11;;;;;;;1.30;1.17;;;18.60;54.70;;;;;;5079247;28;20181;-15
2022/01/22 09:26:37;;;;;;;2.50;1.20;;;18.50;55.40;;;;;;5075495;28;20272;-15
2022/01/22 09:29:04;;;;;;;1.50;1.40;;;18.30;55.70;;;;;;5073406;28;20216;-15
2022/01/22 09:31:31;;;;;;;1.63;1.33;;;18.10;56.40;;;;;;5073137;28;20205;-17
2022/01/22 09:33:59;;;;;;;1.50;1.40;;;17.90;57.20;;;;;;5092819;28;20562;-14
2022/01/22 09:36:27;;;;;;;1.33;1.20;;;17.80;58.00;;;;;;5076707;28;20179;-17
2022/01/22 09:38:54;;;;;;;1.40;1.30;;;17.60;58.50;;;;;;5060192;28;20173;-15
2022/01/22 09:41:23;;;;;;;1.93;1.50;;;17.50;59.20;;;;;;5094557;28;20527;-15
2022/01/22 09:43:49;;;;;;;2.47;1.60;;;17.30;59.70;;;;;;5076906;28;20208;-16
2022/01/22 09:46:15;;;;;;;1.97;1.60;;;17.30;60.50;;;;;;5094491;28;20173;-18
2022/01/22 09:48:43;;;;;;;1.83;1.47;;;17.20;61.20;;;;;;5078999;28;20177;-16
2022/01/22 09:51:09;;;;;;;1.70;1.47;;;17.10;62.10;;;;;;5094935;28;20748;-15
2022/01/22 09:53:36;;;;;;;2.57;1.40;;;17.00;62.70;;;;;;5093940;28;20175;-15
2022/01/22 09:56:02;;;;;;;2.03;1.60;;;16.90;63.50;;;;;;5076856;28;20419;-15
2022/01/22 09:58:29;;;;;;;1.70;1.60;;;16.80;64.70;;;;;;5094919;28;20170;-16
2022/01/22 10:01:18;;;;;;;2.00;1.80;;;16.70;64.50;;;;;;5093815;28;20588;-15
2022/01/22 10:03:44;;;;;;;2.97;1.60;;;16.70;65.20;;;;;;5094479;28;20175;-15
2022/01/22 10:06:14;;;;;;;1.60;1.50;;;16.60;65.70;;;;;;5094593;28;20169;-16
2022/01/22 10:08:40;;;;;;;1.70;1.50;;;16.60;66.20;;;;;;5075200;28;20208;-16
2022/01/22 10:11:25;;;;;;;3.80;1.70;;;16.50;66.40;;;;;;5093147;28;20200;-16
2022/01/22 10:13:56;;;;;;;2.07;1.73;;;16.50;67.10;;;;;;5094989;28;20217;-14
2022/01/22 10:16:36;;;;;;;2.77;1.60;;;16.40;67.70;;;;;;5076332;28;20187;-15
2022/01/22 10:19:18;;;;;;;2.50;1.93;;;16.40;68.30;;;;;;5075927;28;20561;-16
2022/01/22 10:21:59;;;;;;;2.27;1.80;;;16.50;68.20;;;;;;5076076;28;20168;-17
2022/01/22 10:24:42;;;;;;;2.40;1.77;;;16.90;67.00;;;;;;5093900;28;20548;-16
2022/01/22 10:30:14;;;;;;;3.87;1.90;;;17.70;60.50;;;;;;5094969;28;20208;-16
2022/01/22 10:32:53;;;;;;;4.40;1.80;;;18.00;59.30;;;;;;5095258;28;20195;-17
2022/01/22 10:35:26;;;;;;;2.23;1.70;;;18.30;58.30;;;;;;5093910;28;20189;-14
2022/01/22 10:38:01;;;;;;;5.93;2.10;;;18.60;57.00;;;;;;5092274;28;20428;-15
2022/01/22 10:40:32;;;;;;;2.87;1.90;;;18.80;56.80;;;;;;5075718;28;20178;-16
2022/01/22 10:43:34;;;;;;;3.23;2.00;;;18.80;56.50;;;;;;5075673;28;20282;-17
2022/01/22 10:46:08;;;;;;;2.10;1.87;;;18.70;56.70;;;;;;5093649;28;20426;-16
2022/01/22 10:48:36;;;;;;;5.60;2.20;;;18.50;57.30;;;;;;5094074;28;20488;-16
2022/01/22 10:51:05;;;;;;;4.60;2.07;;;18.40;57.90;;;;;;5075512;28;20602;-16
2022/01/22 10:53:38;;;;;;;3.77;2.00;;;18.20;58.30;;;;;;5092152;28;20184;-14
2022/01/22 10:56:06;;;;;;;3.53;2.20;;;18.00;59.30;;;;;;5094232;28;20611;-18
2022/01/22 10:58:34;;;;;;;2.37;2.00;;;17.80;60.10;;;;;;5076461;28;20173;-18
2022/01/22 11:01:06;;;;;;;5.93;2.33;;;17.70;61.30;;;;;;5066787;28;20275;-15
2022/01/22 11:03:32;;;;;;;2.37;2.10;;;17.50;62.50;;;;;;5080591;28;20251;-15
2022/01/22 11:06:04;;;;;;;2.43;2.00;;;17.50;63.60;;;;;;5080637;28;20173;-15
2022/01/22 11:08:30;;;;;;;3.90;2.10;;;17.30;64.50;;;;;;5081257;28;20684;-16
2022/01/22 11:10:56;;;;;;;2.33;2.10;;;17.30;65.20;;;;;;5077511;28;20793;-16
2022/01/22 11:13:21;;;;;;;3.90;2.27;;;17.20;65.90;;;;;;5071609;28;20173;-16
2022/01/22 11:15:50;;;;;;;3.07;2.60;;;17.10;66.50;;;;;;5071721;28;20196;-15
2022/01/22 11:18:18;;;;;;;2.53;2.20;;;17.00;67.50;;;;;;5071582;28;20213;-15
2022/01/22 11:20:45;;;;;;;4.50;2.70;;;17.00;67.90;;;;;;5053487;28;20168;-16
2022/01/22 11:23:13;;;;;;;4.40;2.40;;;16.90;68.40;;;;;;5053245;28;20642;-17
2022/01/22 11:25:41;;;;;;;5.00;2.80;;;16.90;68.90;;;;;;5053397;28;20476;-16
2022/01/22 11:28:07;;;;;;;3.23;2.43;;;16.90;69.20;;;;;;5071921;28;20175;-17
2022/01/22 11:30:35;;;;;;;3.37;2.60;;;16.80;69.50;;;;;;5052910;28;20238;-17
2022/01/22 11:33:15;;;;;;;4.37;2.90;;;16.80;69.90;;;;;;5072021;28;20253;-17
2022/01/22 11:36:04;;;;;;;5.20;3.00;;;16.80;70.10;;;;;;5053795;28;20177;-15
2022/01/22 11:38:38;;;;;;;4.97;3.00;;;16.70;70.40;;;;;;5071065;28;20176;-15
2022/01/22 11:41:15;;;;;;;4.63;2.80;;;16.60;70.50;;;;;;5054443;28;20378;-16
2022/01/22 11:46:31;;;;;;;4.40;2.93;;;16.60;71.40;;;;;;5071404;28;20240;-15
2022/01/22 11:49:22;;;;;;;5.73;3.00;;;16.60;72.00;;;;;;5053610;28;20243;-15
2022/01/22 11:51:50;;;;;;;5.93;2.87;;;16.60;71.90;;;;;;5071039;28;20567;-17
2022/01/22 11:54:18;;;;;;;4.97;3.20;;;16.70;71.60;;;;;;5052803;28;20170;-15
2022/01/22 11:56:46;;;;;;;5.23;3.17;;;16.90;70.30;;;;;;5052212;28;20172;-16
2022/01/22 11:59:11;;;;;;;5.13;3.10;;;17.30;67.50;;;;;;5054900;28;20173;-14
2022/01/22 12:01:45;;;;;;;4.67;3.20;;;17.70;64.20;;;;;;5053356;28;20580;-14
2022/01/22 12:04:17;;;;;;;5.50;3.20;;;18.30;60.60;;;;;;5070810;28;20339;-18
2022/01/22 12:07:01;;;;;;;4.47;3.17;;;18.40;59.60;;;;;;5070847;28;20553;-15
2022/01/22 12:09:31;;;;;;;7.07;3.47;;;18.40;59.30;;;;;;5053145;28;20183;-17
2022/01/22 12:14:53;;;;;;;8.33;3.03;;;18.60;58.20;;;;;;5071941;28;20232;-15
2022/01/22 12:17:40;;;;;;;4.47;3.07;;;18.50;58.40;;;;;;5053779;28;20226;-15
2022/01/22 12:20:18;;;;;;;3.87;3.30;;;18.50;58.70;;;;;;5071365;28;20173;-16
2022/01/22 12:22:44;;;;;;;3.30;3.00;;;18.30;59.30;;;;;;5070523;28;20170;-15
2022/01/22 12:25:15;;;;;;;3.47;3.17;;;18.00;60.50;;;;;;5053146;28;20236;-16
2022/01/22 12:27:45;;;;;;;4.10;3.00;;;17.90;61.80;;;;;;5052172;28;20199;-16
2022/01/22 12:30:13;;;;;;;5.90;3.10;;;17.70;63.10;;;;;;5069383;28;20574;-14
2022/01/22 12:32:51;;;;;;;5.83;3.00;;;17.60;64.30;;;;;;5070471;28;20221;-16
2022/01/22 12:35:31;;;;;;;5.30;2.90;;;17.50;65.50;;;;;;5069737;28;20159;-16
2022/01/22 12:38:13;;;;;;;4.90;3.03;;;17.40;66.60;;;;;;5069410;28;20255;-18
2022/01/22 12:40:39;;;;;;;5.50;3.27;;;17.20;67.60;;;;;;5068664;28;20235;-14
2022/01/22 12:43:12;;;;;;;4.80;3.10;;;17.10;68.50;;;;;;5052425;28;20179;-15
2022/01/22 12:45:41;;;;;;;3.70;2.67;;;17.10;69.10;;;;;;5050392;28;20175;-16
2022/01/22 12:48:07;;;;;;;6.10;3.00;;;17.00;69.80;;;;;;5070978;28;20543;-15
2022/01/22 12:50:36;;;;;;;4.63;3.07;;;17.00;70.60;;;;;;5051278;28;20370;-15
2022/01/22 12:53:12;;;;;;;4.37;2.90;;;16.90;71.10;;;;;;5069159;28;20173;-15
2022/01/22 12:58:37;;;;;;;5.60;2.97;;;16.80;71.80;;;;;;5070293;28;20524;-16
2022/01/22 13:01:21;;;;;;;4.00;2.87;;;16.80;72.50;;;;;;5051728;28;20612;-16
2022/01/22 13:03:50;;;;;;;4.37;2.87;;;16.70;73.00;;;;;;5068904;28;20362;-18
2022/01/22 13:06:17;;;;;;;4.67;2.70;;;16.70;73.50;;;;;;5069247;28;20174;-15
2022/01/22 13:08:43;;;;;;;4.50;3.07;;;16.70;73.80;;;;;;5069933;28;20344;-17
2022/01/22 13:11:18;;;;;;;4.90;2.60;;;16.60;74.10;;;;;;5070165;28;20307;-16
2022/01/22 13:13:49;;;;;;;2.77;2.57;;;16.60;74.20;;;;;;5070159;28;20195;-15
2022/01/22 13:16:17;;;;;;;2.30;2.10;;;16.60;74.60;;;;;;5051979;28;20169;-15
2022/01/22 13:18:46;;;;;;;3.40;2.70;;;16.60;75.30;;;;;;5050821;28;20474;-15
2022/01/22 13:21:14;;;;;;;4.80;2.60;;;16.50;75.80;;;;;;5069503;28;20180;-15
2022/01/22 13:23:40;;;;;;;3.83;2.47;;;16.50;76.80;;;;;;5051873;28;20209;-16
2022/01/22 13:26:07;;;;;;;4.07;2.70;;;16.50;76.90;;;;;;5068928;28;20195;-16
2022/01/22 13:28:35;;;;;;;2.83;2.33;;;16.50;76.60;;;;;;5069452;28;20456;-18
2022/01/22 13:31:10;;;;;;;6.77;2.63;;;16.50;76.30;;;;;;5050603;28;20220;-15
2022/01/22 13:36:47;;;;;;;4.53;2.47;;;16.80;74.30;;;;;;5056011;28;20178;-15
2022/01/22 13:39:37;;;;;;;4.43;2.50;;;17.30;71.60;;;;;;5051392;28;20172;-15
2022/01/22 13:47:53;;;;;;;7.53;2.30;;;19.10;58.40;;;;;;4988102;28;20171;-15
2022/01/22 13:50:21;;;;;;;6.77;2.83;;;18.70;63.60;;;;;;5056293;28;20205;-16
2022/01/22 13:52:47;;;;;;;10.37;2.77;;;18.40;67.70;;;;;;5069900;28;20171;-17
2022/01/22 13:55:14;;;;;;;5.03;2.17;;;18.30;70.00;;;;;;5069670;28;20172;-18
2022/01/22 13:57:43;;;;;;;8.90;2.20;;;18.10;71.50;;;;;;5070001;28;20754;-15
2022/01/22 14:00:15;;;;;;;7.40;2.30;;;18.00;72.70;;;;;;5051309;28;20185;-15
2022/01/22 14:05:29;;;;;;;5.33;2.33;;;17.80;74.50;;;;;;5069502;28;20185;-16
2022/01/22 14:08:05;;;;;;;4.13;2.10;;;17.70;75.20;;;;;;5049832;28;20284;-16
2022/01/22 14:10:34;;;;;;;6.00;2.57;;;17.60;76.00;;;;;;5067491;28;20226;-15
2022/01/22 14:13:07;;;;;;;6.13;2.20;;;17.50;76.40;;;;;;5067286;28;20182;-15
2022/01/22 14:15:39;;;;;;;3.83;2.07;;;17.40;76.90;;;;;;5050955;28;20182;-15
2022/01/22 14:18:17;;;;;;;5.60;2.10;;;17.30;77.10;;;;;;5051898;28;20167;-15
2022/01/22 14:21:04;;;;;;;7.17;2.17;;;17.30;77.50;;;;;;5054376;28;20280;-15
2022/01/22 14:23:31;;;;;;;3.10;2.10;;;17.20;78.00;;;;;;5071753;28;20242;-15
2022/01/22 14:26:02;;;;;;;4.93;2.33;;;17.20;78.50;;;;;;5054595;28;20234;-16
2022/01/22 14:28:40;;;;;;;3.30;2.23;;;17.10;78.80;;;;;;5055414;28;20174;-17
2022/01/22 14:31:24;;;;;;;3.70;2.20;;;17.10;79.10;;;;;;5054213;28;20467;-17
2022/01/22 14:33:50;;;;;;;4.13;2.07;;;17.00;79.60;;;;;;5054179;28;20219;-17
2022/01/22 14:36:19;;;;;;;5.87;2.00;;;17.00;79.90;;;;;;5070936;28;20358;-16
2022/01/22 14:38:54;;;;;;;4.63;2.10;;;16.90;80.20;;;;;;5056154;28;20170;-15
2022/01/22 14:44:28;;;;;;;4.00;1.90;;;16.90;81.50;;;;;;5072350;28;20194;-16
2022/01/22 14:47:02;;;;;;;3.77;1.90;;;16.80;81.70;;;;;;5040564;28;20498;-15
2022/01/22 14:49:31;;;;;;;3.83;1.93;;;16.80;82.10;;;;;;5054538;28;20174;-17
2022/01/22 14:51:58;;;;;;;4.20;1.80;;;16.80;82.40;;;;;;5072126;28;20330;-17
2022/01/22 14:54:25;;;;;;;3.60;2.10;;;16.80;82.50;;;;;;5055947;28;20175;-18
2022/01/22 14:56:51;;;;;;;2.57;1.67;;;16.70;82.60;;;;;;5073414;28;20466;-16
2022/01/22 14:59:18;;;;;;;2.93;1.90;;;16.70;82.90;;;;;;5052603;28;20428;-16
2022/01/22 15:01:44;;;;;;;2.57;1.73;;;16.70;82.80;;;;;;5055066;28;20210;-17
2022/01/22 15:04:09;;;;;;;2.53;1.70;;;16.70;83.20;;;;;;5072908;28;20169;-20
2022/01/22 15:06:35;;;;;;;2.90;1.90;;;16.60;83.20;;;;;;5071953;28;20191;-16
2022/01/22 15:09:01;;;;;;;4.70;2.00;;;16.60;83.40;;;;;;5054328;28;20475;-17